Time;durP1;ratioP1;P1;durP2;ratioP2;P2;SDS_P1;SDS_P2;PMS_P1;PMS_P2;Temp;Humidity;BMP_temperature;BMP_pressure;BME280_temperature;BME280_humidity;BME280_pressure;Samples;Min_cycle;Max_cycle;Signal;HPM_P1;HPM_P2
2022/09/23 00:02:09;;;;;;;2.78;2.40;;;;;;;9.07;79.70;101707.59;5076322;28;20335;-93
2022/09/23 00:04:34;;;;;;;2.40;2.20;;;;;;;9.05;79.51;101707.59;5076298;28;20050;-93
2022/09/23 00:07:54;;;;;;;4.10;2.35;;;;;;;9.07;79.55;101711.06;5076250;28;20407;-93
2022/09/23 00:10:31;;;;;;;3.50;2.40;;;;;;;9.04;79.82;101713.63;5076849;28;20064;-92
2022/09/23 00:13:09;;;;;;;2.45;2.25;;;;;;;9.02;79.86;101704.97;5076321;28;20021;-93
2022/09/23 00:15:38;;;;;;;2.63;2.25;;;;;;;8.99;80.12;101712.75;5075848;28;20065;-93
2022/09/23 00:18:10;;;;;;;2.70;2.33;;;;;;;8.95;79.93;101698.06;5076193;28;20115;-93
2022/09/23 00:20:35;;;;;;;3.33;2.40;;;;;;;8.94;79.81;101694.63;5076228;28;20032;-93
2022/09/23 00:23:07;;;;;;;2.80;2.30;;;;;;;8.94;79.92;101696.31;5076303;28;20046;-93
2022/09/23 00:25:32;;;;;;;2.78;2.35;;;;;;;8.97;79.89;101704.13;5076497;28;20111;-93
2022/09/23 00:27:57;;;;;;;2.50;2.30;;;;;;;8.95;79.99;101700.66;5076214;28;20111;-93
2022/09/23 00:31:14;;;;;;;3.00;2.40;;;;;;;8.91;79.91;101691.13;5076577;28;20024;-92
2022/09/23 00:33:57;;;;;;;3.08;2.53;;;;;;;8.88;79.92;101684.22;5058480;28;20067;-92
2022/09/23 00:36:34;;;;;;;3.25;2.60;;;;;;;8.87;80.74;101687.66;5081719;22;20059;-93
2022/09/23 00:39:08;;;;;;;3.88;2.60;;;;;;;8.84;80.10;101685.03;5056147;28;20132;-93
2022/09/23 00:41:35;;;;;;;4.05;2.92;;;;;;;8.81;80.04;101687.63;5055895;28;20068;-93
2022/09/23 00:44:23;;;;;;;2.78;2.45;;;;;;;8.79;80.29;101679.00;5055846;28;20035;-93
2022/09/23 00:47:30;;;;;;;3.22;2.53;;;;;;;8.79;79.97;101694.53;5056469;28;20025;-93
2022/09/23 00:50:09;;;;;;;3.33;2.80;;;;;;;8.77;80.21;101685.88;5091238;22;20076;-93
2022/09/23 00:52:35;;;;;;;3.47;2.88;;;;;;;8.76;80.17;101678.97;5056774;28;20025;-92
2022/09/23 00:58:18;;;;;;;3.60;2.80;;;;;;;8.69;80.31;101672.88;5054999;28;19916;-93
2022/09/23 01:00:45;;;;;;;3.92;2.80;;;;;;;8.67;80.29;101676.31;5055439;28;20017;-93
2022/09/23 01:03:12;;;;;;;3.90;2.67;;;;;;;8.67;80.36;101677.19;5062536;22;20049;-93
2022/09/23 01:05:46;;;;;;;3.13;2.60;;;;;;;8.64;80.34;101672.84;5055413;28;20171;-93
2022/09/23 01:08:27;;;;;;;3.10;2.60;;;;;;;8.64;80.30;101675.44;5054916;28;20024;-94
2022/09/23 01:11:37;;;;;;;4.10;2.65;;;;;;;8.64;80.32;101674.59;5054862;28;20477;-92
2022/09/23 01:17:01;;;;;;;4.80;2.92;;;;;;;8.59;80.50;101673.69;5117885;22;20063;-93
2022/09/23 01:19:41;;;;;;;3.88;2.80;;;;;;;8.58;80.50;101671.94;5055237;28;20112;-92
2022/09/23 01:22:50;;;;;;;3.35;2.70;;;;;;;8.58;80.55;101670.25;5054996;28;20029;-93
2022/09/23 01:25:51;;;;;;;4.10;2.85;;;;;;;8.59;80.44;101668.50;5055014;28;20489;-93
2022/09/23 01:28:32;;;;;;;3.40;2.83;;;;;;;8.58;80.57;101675.44;5054665;28;20044;-93
2022/09/23 01:31:09;;;;;;;4.90;3.13;;;;;;;8.56;80.63;101665.91;5054006;28;20025;-92
2022/09/23 01:34:08;;;;;;;3.85;2.95;;;;;;;8.57;80.64;101670.22;5055146;28;20029;-93
2022/09/23 01:36:57;;;;;;;3.30;2.80;;;;;;;8.53;80.54;101658.13;5054474;28;20064;-93
2022/09/23 01:40:21;;;;;;;4.82;3.30;;;;;;;8.50;80.56;101657.25;5055099;28;20021;-92
2022/09/23 01:43:39;;;;;;;4.80;3.38;;;;;;;8.50;80.73;101659.84;4993342;28;20088;-92
2022/09/23 01:46:54;;;;;;;4.10;3.20;;;;;;;8.47;80.55;101669.28;5019979;22;20103;-93
2022/09/23 01:49:41;;;;;;;4.10;3.03;;;;;;;8.44;80.66;101654.63;5054676;28;20029;-92
2022/09/23 01:52:31;;;;;;;3.50;2.97;;;;;;;8.41;80.55;101656.28;5054237;28;20048;-93
2022/09/23 01:55:25;;;;;;;3.83;2.95;;;;;;;8.39;80.80;101656.28;5054569;28;20115;-92
2022/09/23 01:58:20;;;;;;;3.78;2.90;;;;;;;8.36;80.62;101656.25;5054638;28;20060;-92
2022/09/23 02:01:35;;;;;;;4.65;3.17;;;;;;;8.36;80.94;101661.44;5054338;28;20044;-93
2022/09/23 02:04:21;;;;;;;4.03;2.97;;;;;;;8.35;80.84;101660.59;5038050;28;20036;-93
2022/09/23 02:07:31;;;;;;;4.95;3.17;;;;;;;8.34;80.87;101657.97;5054031;28;20276;-93
2022/09/23 02:10:23;;;;;;;4.43;2.80;;;;;;;8.28;81.14;101648.44;5052878;28;20025;-92
2022/09/23 02:12:52;;;;;;;4.53;2.95;;;;;;;8.28;81.16;101648.44;5069785;28;20381;-93
2022/09/23 02:15:22;;;;;;;4.43;3.00;;;;;;;8.30;80.91;101648.47;5074393;28;20020;-93
2022/09/23 02:17:57;;;;;;;5.80;3.10;;;;;;;8.31;81.13;101645.88;5074239;28;20023;-92
2022/09/23 02:20:29;;;;;;;4.28;3.10;;;;;;;8.30;81.14;101648.47;5074054;28;20035;-92
2022/09/23 02:23:19;;;;;;;4.30;3.00;;;;;;;8.27;81.36;101641.56;5074278;28;20027;-92
2022/09/23 02:26:12;;;;;;;4.32;2.78;;;;;;;8.28;81.49;101643.25;5068329;28;20025;-92
2022/09/23 02:29:02;;;;;;;4.13;3.03;;;;;;;8.29;81.43;101638.97;5054044;28;20039;-93
2022/09/23 02:31:39;;;;;;;4.63;3.03;;;;;;;8.28;81.47;101640.69;5046464;28;20024;-93
2022/09/23 02:34:56;;;;;;;4.65;3.13;;;;;;;8.25;81.34;101630.34;5053994;28;20025;-93
2022/09/23 02:37:30;;;;;;;3.83;2.90;;;;;;;8.24;81.47;101631.19;5053910;28;20112;-93
2022/09/23 02:40:16;;;;;;;4.85;3.30;;;;;;;8.23;81.47;101620.81;5053576;28;20094;-93
2022/09/23 02:43:00;;;;;;;;;;;;;;;8.23;81.61;101620.81;5049002;28;20385;-93
2022/09/23 02:45:26;;;;;;;4.60;3.40;;;;;;;8.18;81.43;101613.91;5053907;28;20311;-91
2022/09/23 02:48:11;;;;;;;4.33;3.00;;;;;;;8.19;81.56;101613.06;5053790;28;20033;-93
2022/09/23 02:50:37;;;;;;;3.60;3.03;;;;;;;8.19;81.44;101615.63;5047990;28;20048;-93
2022/09/23 02:53:11;;;;;;;4.10;3.07;;;;;;;8.16;81.55;101607.84;5053680;28;20032;-93
2022/09/23 02:55:46;;;;;;;4.45;3.20;;;;;;;8.13;81.77;101599.22;5053842;28;20032;-93
2022/09/23 02:58:24;;;;;;;4.28;3.30;;;;;;;8.13;81.48;101601.81;5053917;28;20021;-93
2022/09/23 03:01:21;;;;;;;4.30;3.20;;;;;;;8.13;81.70;101604.38;5053927;28;20498;-93
2022/09/23 03:04:10;;;;;;;4.93;3.40;;;;;;;8.10;81.62;101599.19;5049268;28;20078;-93
2022/09/23 03:07:01;;;;;;;4.15;3.13;;;;;;;8.08;81.84;101594.00;5047700;28;20100;-94
2022/09/23 03:09:39;;;;;;;4.50;3.38;;;;;;;8.04;81.75;101594.84;5046386;28;20044;-93
2022/09/23 03:12:59;;;;;;;3.70;3.00;;;;;;;8.03;81.82;101595.69;5071010;28;20070;-93
2022/09/23 03:16:02;;;;;;;4.55;3.22;;;;;;;8.00;81.98;101593.06;4992576;28;20106;-93
2022/09/23 03:18:55;;;;;;;5.22;3.22;;;;;;;7.95;82.01;101592.19;5066409;28;20035;-93
2022/09/23 03:21:40;;;;;;;4.43;3.00;;;;;;;7.89;81.92;101582.66;5066171;28;20057;-93
2022/09/23 03:24:13;;;;;;;4.22;3.10;;;;;;;7.87;81.98;101577.50;5057355;28;20033;-93
2022/09/23 03:26:46;;;;;;;4.72;3.30;;;;;;;7.87;81.96;101579.19;5057155;28;20080;-93
2022/09/23 03:29:33;;;;;;;4.20;3.20;;;;;;;7.85;82.06;101579.19;5057724;28;20487;-93
2022/09/23 03:31:58;;;;;;;4.50;3.40;;;;;;;7.85;82.34;101579.19;5057564;28;20033;-94
2022/09/23 03:34:30;;;;;;;4.18;3.15;;;;;;;7.84;82.12;101580.06;5057494;28;20021;-93
2022/09/23 03:37:33;;;;;;;4.40;3.28;;;;;;;7.84;82.01;101582.63;5057122;28;20036;-93
2022/09/23 03:43:04;;;;;;;4.85;3.13;;;;;;;7.80;82.10;101580.88;5057225;28;20535;-93
2022/09/23 03:45:32;;;;;;;5.65;3.10;;;;;;;7.78;82.10;101581.72;5057175;28;20052;-93
2022/09/23 03:48:00;;;;;;;4.53;3.20;;;;;;;7.75;82.29;101579.09;5055707;28;20052;-93
2022/09/23 03:50:26;;;;;;;3.47;2.83;;;;;;;7.73;82.07;101577.38;5057192;28;20033;-93
2022/09/23 03:52:51;;;;;;;3.97;2.90;;;;;;;7.71;82.22;101570.47;5057056;28;20028;-93
2022/09/23 03:55:18;;;;;;;4.38;2.92;;;;;;;7.70;82.56;101571.31;5075520;22;21209;-93
2022/09/23 03:57:44;;;;;;;4.85;3.22;;;;;;;7.69;82.58;101564.41;5077323;28;20043;-93
2022/09/23 04:00:26;;;;;;;3.78;2.88;;;;;;;7.71;82.48;101573.03;5076524;28;20025;-93
2022/09/23 04:02:51;;;;;;;4.65;3.45;;;;;;;7.68;82.60;101573.00;5076522;28;20048;-93
2022/09/23 04:05:25;;;;;;;4.45;3.17;;;;;;;7.68;82.46;101573.00;5076415;28;20058;-93
2022/09/23 04:07:59;;;;;;;4.50;3.25;;;;;;;7.65;82.59;101562.69;5075946;28;20051;-93
2022/09/23 04:10:31;;;;;;;4.50;3.10;;;;;;;7.63;82.54;101567.81;5076706;28;20021;-93
2022/09/23 04:12:59;;;;;;;3.47;2.83;;;;;;;7.63;82.66;101570.38;5076525;28;20028;-95
2022/09/23 04:15:37;;;;;;;4.28;3.20;;;;;;;7.65;82.59;101560.09;5058125;28;20029;-94
2022/09/23 04:18:22;;;;;;;4.90;3.00;;;;;;;7.66;82.70;101564.38;5071359;28;20024;-94
2022/09/23 04:20:48;;;;;;;4.65;2.97;;;;;;;7.60;82.80;101562.59;5076406;28;20461;-94
2022/09/23 04:26:13;;;;;;;3.45;2.88;;;;;;;7.57;82.69;101560.03;5077287;28;20090;-94
2022/09/23 04:28:39;;;;;;;4.65;2.80;;;;;;;7.56;82.80;101568.63;5076903;28;20024;-95
2022/09/23 04:31:13;;;;;;;3.42;2.90;;;;;;;7.55;83.10;101566.88;5076440;28;20354;-94
2022/09/23 04:33:38;;;;;;;3.78;2.97;;;;;;;7.51;82.81;101568.59;5076812;28;20021;-96
2022/09/23 04:36:13;;;;;;;3.78;2.95;;;;;;;7.51;83.11;101562.53;5077441;28;20020;-95
2022/09/23 04:38:51;;;;;;;3.58;2.67;;;;;;;7.52;82.94;101567.72;5076776;28;20017;-95
2022/09/23 04:41:17;;;;;;;3.10;2.65;;;;;;;7.49;82.97;101565.09;5077006;28;20020;-95
2022/09/23 04:43:56;;;;;;;3.35;2.78;;;;;;;7.54;83.38;101563.41;5056180;28;20548;-95
2022/09/23 04:46:28;;;;;;;2.60;2.40;;;;;;;7.51;83.24;101558.25;5073709;28;20021;-94
2022/09/23 04:48:53;;;;;;;3.60;2.75;;;;;;;7.50;83.38;101553.94;5075275;22;20056;-94
2022/09/23 04:51:31;;;;;;;4.63;3.03;;;;;;;7.49;83.12;101561.66;5077172;28;20107;-95
2022/09/23 04:53:56;;;;;;;3.63;2.90;;;;;;;7.49;83.43;101561.66;5076010;28;20465;-95
2022/09/23 04:59:30;;;;;;;4.47;2.75;;;;;;;7.51;83.55;101554.78;5063734;22;20064;-95
2022/09/23 05:02:10;;;;;;;3.63;2.97;;;;;;;7.49;83.32;101548.72;5056414;28;20147;-95
2022/09/23 05:04:42;;;;;;;3.30;2.70;;;;;;;7.49;83.56;101551.31;5056587;28;20052;-95
2022/09/23 05:07:08;;;;;;;3.35;2.70;;;;;;;7.48;83.44;101541.88;5072748;22;20270;-95
2022/09/23 05:09:33;;;;;;;3.65;2.80;;;;;;;7.47;83.85;101540.13;5084208;22;20036;-95
2022/09/23 05:12:13;;;;;;;4.30;2.90;;;;;;;7.47;83.47;101542.72;5076910;28;20033;-95
2022/09/23 05:14:53;;;;;;;4.15;2.97;;;;;;;7.51;83.72;101549.63;5075833;28;20162;-95
2022/09/23 05:17:27;;;;;;;4.82;3.03;;;;;;;7.53;83.73;101545.34;5076540;28;20125;-95
2022/09/23 05:20:10;;;;;;;4.10;2.90;;;;;;;7.53;83.57;101551.38;5052342;28;20027;-96
2022/09/23 05:22:46;;;;;;;3.53;2.80;;;;;;;7.55;83.75;101553.97;5056670;28;20576;-95
2022/09/23 05:25:24;;;;;;;4.00;2.80;;;;;;;7.54;83.66;101550.50;5056169;28;20061;-96
2022/09/23 05:28:08;;;;;;;3.42;2.70;;;;;;;7.57;83.55;101560.88;5057333;28;20080;-95
2022/09/23 05:30:33;;;;;;;4.72;2.90;;;;;;;7.58;83.67;101556.59;5076241;28;20483;-95
2022/09/23 05:33:41;;;;;;;3.60;2.90;;;;;;;7.62;83.89;101560.06;5075213;28;20092;-95
2022/09/23 05:36:07;;;;;;;4.60;3.03;;;;;;;7.63;83.86;101565.22;5077169;28;20035;-96
2022/09/23 05:38:44;;;;;;;3.42;2.70;;;;;;;7.65;83.72;101570.44;5075698;28;20020;-96
2022/09/23 05:41:12;;;;;;;3.35;2.78;;;;;;;7.63;83.90;101559.22;5075257;28;20416;-95
2022/09/23 05:47:21;;;;;;;3.20;2.70;;;;;;;7.71;84.23;101570.47;5075568;28;20039;-96
2022/09/23 05:49:46;;;;;;;3.30;2.50;;;;;;;7.70;84.46;101564.44;5075006;28;20025;-95
2022/09/23 05:52:59;;;;;;;2.70;2.30;;;;;;;7.72;84.37;101570.47;5074885;28;20036;-95
2022/09/23 05:55:24;;;;;;;2.40;2.20;;;;;;;7.72;84.04;101561.88;5075131;28;20534;-96
2022/09/23 05:58:03;;;;;;;2.70;2.40;;;;;;;7.77;84.21;101569.66;5074733;28;20021;-95
2022/09/23 06:00:28;;;;;;;3.00;2.45;;;;;;;7.83;84.41;101574.84;5074259;28;20025;-96
2022/09/23 06:06:31;;;;;;;3.35;2.60;;;;;;;7.94;84.27;101574.94;5074841;28;20039;-94
2022/09/23 06:09:18;;;;;;;3.08;2.47;;;;;;;7.97;84.21;101572.38;5074000;28;20021;-94
2022/09/23 06:11:43;;;;;;;;;;;;;;;8.02;84.56;101576.75;5055056;28;20033;-96
2022/09/23 06:20:52;;;;;;;2.55;2.20;;;;;;;8.09;84.81;101551.81;5054118;28;20043;-88
2022/09/23 06:23:17;;;;;;;2.60;2.33;;;;;;;8.16;84.77;101565.63;5053813;28;20428;-89
2022/09/23 06:26:03;;;;;;;2.63;2.30;;;;;;;8.18;84.58;101561.31;5053529;28;20021;-89
2022/09/23 06:28:31;;;;;;;3.00;2.20;;;;;;;8.21;84.64;101563.06;5053111;28;20068;-88
2022/09/23 06:31:16;;;;;;;2.30;2.08;;;;;;;8.27;84.73;101560.50;5053187;28;20071;-88
2022/09/23 06:33:43;;;;;;;2.20;2.00;;;;;;;8.31;85.26;101557.09;5033926;28;20048;-88
2022/09/23 06:36:10;;;;;;;3.67;2.70;;;;;;;8.33;86.99;101555.38;5049863;28;20028;-88
2022/09/23 06:38:48;;;;;;;3.05;2.50;;;;;;;8.35;85.34;101556.25;5053601;28;20036;-88
2022/09/23 06:41:14;;;;;;;2.75;2.35;;;;;;;8.43;85.50;101558.88;5052980;28;20021;-88
2022/09/23 06:43:39;;;;;;;2.60;2.37;;;;;;;8.47;85.15;101551.16;5052881;28;20029;-88
2022/09/23 06:46:17;;;;;;;2.37;2.17;;;;;;;8.56;85.33;101552.06;5053154;28;20021;-88
2022/09/23 06:48:43;;;;;;;2.63;2.30;;;;;;;8.60;85.56;101557.28;5053871;28;20020;-89
2022/09/23 06:51:17;;;;;;;2.83;2.33;;;;;;;8.66;84.70;101561.63;5052925;28;20028;-88
2022/09/23 06:53:47;;;;;;;3.78;2.60;;;;;;;8.74;86.96;101562.50;5053242;28;20492;-89
2022/09/23 06:56:12;;;;;;;3.97;2.47;;;;;;;8.79;86.13;101565.94;5055212;28;20036;-88
2022/09/23 06:58:47;;;;;;;2.90;2.20;;;;;;;8.88;85.39;101553.94;5056509;28;20107;-89
2022/09/23 07:01:17;;;;;;;2.47;2.28;;;;;;;8.99;85.60;101553.94;5037455;28;20033;-88
2022/09/23 07:03:47;;;;;;;2.33;2.10;;;;;;;9.06;85.07;101561.75;5049775;28;20072;-87
2022/09/23 07:06:12;;;;;;;2.42;2.10;;;;;;;9.12;84.92;101553.97;5057193;28;20022;-88
2022/09/23 07:08:40;;;;;;;2.20;2.00;;;;;;;9.22;85.39;101561.78;5057029;28;20048;-87
2022/09/23 07:11:11;;;;;;;2.75;2.00;;;;;;;9.27;85.30;101558.34;5072092;28;20040;-87
2022/09/23 07:13:43;;;;;;;2.50;1.80;;;;;;;9.32;85.60;101557.47;5077320;28;20017;-87
2022/09/23 07:16:14;;;;;;;1.70;1.60;;;;;;;9.38;85.08;101557.50;5076855;28;20111;-88
2022/09/23 07:18:55;;;;;;;2.00;1.80;;;;;;;9.48;85.79;101560.94;5076635;28;20472;-92
2022/09/23 07:21:36;;;;;;;1.88;1.77;;;;;;;9.54;86.70;101560.94;5077903;28;20139;-94
2022/09/23 07:24:04;;;;;;;3.30;2.25;;;;;;;9.58;85.31;101549.69;5077406;28;20119;-93
2022/09/23 07:26:32;;;;;;;1.85;1.73;;;;;;;9.66;85.40;101550.59;5077706;28;20027;-95
2022/09/23 07:29:12;;;;;;;2.38;2.00;;;;;;;9.75;85.24;101552.28;5075233;28;20089;-94
2022/09/23 07:31:39;;;;;;;2.25;2.03;;;;;;;9.83;85.61;101560.06;5062112;28;20029;-93
2022/09/23 07:34:16;;;;;;;2.40;2.00;;;;;;;9.91;84.44;101549.69;5055390;28;20028;-94
2022/09/23 07:36:48;;;;;;;2.53;2.00;;;;;;;9.98;84.74;101547.09;5056906;28;20029;-93
2022/09/23 07:39:35;;;;;;;4.57;2.50;;;;;;;10.10;84.69;101561.75;5070295;28;20021;-92
2022/09/23 07:42:02;;;;;;;2.15;1.95;;;;;;;10.18;84.56;101564.34;5057699;28;20061;-95
2022/09/23 07:44:28;;;;;;;2.90;2.58;;;;;;;10.26;83.76;101554.81;5058234;28;20635;-91
2022/09/23 07:47:00;;;;;;;4.97;3.20;;;;;;;10.35;84.67;101551.34;5066618;28;20025;-93
2022/09/23 07:49:28;;;;;;;4.15;2.80;;;;;;;10.46;84.70;101552.19;5077279;28;20103;-94
2022/09/23 07:52:03;;;;;;;3.50;2.50;;;;;;;10.54;84.02;101551.28;5076723;28;20028;-93
2022/09/23 07:54:29;;;;;;;2.83;2.40;;;;;;;10.67;84.49;101552.97;5077576;28;20033;-93
2022/09/23 07:57:01;;;;;;;3.00;2.33;;;;;;;10.78;84.36;101550.34;5076856;28;20029;-93
2022/09/23 07:59:30;;;;;;;2.30;2.10;;;;;;;10.88;84.48;101549.44;5070471;28;20020;-93
2022/09/23 08:02:05;;;;;;;2.45;2.25;;;;;;;11.01;83.94;101558.00;5076787;28;20021;-93
2022/09/23 08:05:16;;;;;;;2.20;2.00;;;;;;;11.14;83.85;101553.63;5076992;28;20100;-94
2022/09/23 08:07:52;;;;;;;;;;;;;;;;;;;;;
2022/09/23 08:10:19;;;;;;;2.10;1.90;;;;;;;11.32;83.43;101557.81;5061033;28;20049;-94
2022/09/23 08:13:10;;;;;;;2.10;1.90;;;;;;;11.46;83.35;101565.53;5076836;28;20024;-94
2022/09/23 08:15:57;;;;;;;2.60;2.10;;;;;;;11.55;83.18;101562.84;5076446;28;20021;-94
2022/09/23 08:18:23;;;;;;;2.22;1.95;;;;;;;11.60;82.88;101565.41;5076469;28;20044;-93
2022/09/23 08:20:48;;;;;;;2.40;2.00;;;;;;;11.66;83.06;101561.91;5076580;28;20590;-93
2022/09/23 08:23:23;;;;;;;2.53;1.90;;;;;;;11.72;82.85;101564.44;5090030;22;20049;-93
2022/09/23 08:26:01;;;;;;;2.20;1.95;;;;;;;11.79;82.57;101566.13;5056497;28;20056;-94
2022/09/23 08:28:36;;;;;;;2.10;1.60;;;;;;;11.87;82.55;101563.47;5056431;28;20060;-93
2022/09/23 08:31:02;;;;;;;2.75;2.20;;;;;;;11.96;81.72;101572.91;5056715;28;20029;-93
2022/09/23 08:33:52;;;;;;;2.13;1.93;;;;;;;12.03;81.58;101561.59;5056599;28;20025;-93
2022/09/23 08:36:27;;;;;;;2.00;1.90;;;;;;;12.12;81.73;101564.13;5056170;28;20082;-90
2022/09/23 08:38:56;;;;;;;1.98;1.80;;;;;;;12.23;81.80;101563.97;5035707;28;20033;-91
2022/09/23 08:41:56;;;;;;;2.28;2.00;;;;;;;12.34;81.58;101562.13;5036290;28;20071;-91
2022/09/23 08:44:30;;;;;;;3.17;2.40;;;;;;;12.43;81.40;101568.97;5036002;28;20067;-89
2022/09/23 08:47:10;;;;;;;3.40;2.00;;;;;;;12.54;81.20;101566.25;5051685;28;20060;-88
2022/09/23 08:49:59;;;;;;;2.88;2.08;;;;;;;12.60;80.87;101560.97;5055577;28;20021;-89
2022/09/23 08:52:47;;;;;;;2.50;2.25;;;;;;;12.74;80.39;101565.16;5055021;28;20044;-89
2022/09/23 08:55:23;;;;;;;2.92;2.20;;;;;;;12.83;80.27;101559.81;5055621;28;20112;-89
2022/09/23 08:58:17;;;;;;;2.17;1.98;;;;;;;12.93;80.42;101555.34;5055430;28;20477;-89
2022/09/23 09:00:47;;;;;;;2.22;2.00;;;;;;;13.02;79.07;101562.16;5055571;28;20136;-89
2022/09/23 09:03:21;;;;;;;2.50;2.30;;;;;;;13.08;79.29;101555.13;5054760;28;20057;-89
2022/09/23 09:05:47;;;;;;;2.65;2.10;;;;;;;13.17;79.52;101564.56;5055398;28;20055;-88
2022/09/23 09:08:23;;;;;;;3.10;2.20;;;;;;;13.24;78.80;101557.50;5054809;28;20033;-89
2022/09/23 09:11:00;;;;;;;2.20;2.00;;;;;;;13.32;78.79;101547.81;5045645;28;20076;-91
2022/09/23 09:13:31;;;;;;;4.70;2.58;;;;;;;13.48;77.99;101558.06;5034863;28;20025;-81
2022/09/23 09:16:13;;;;;;;4.32;2.97;;;;;;;13.57;77.12;101548.31;5034130;28;20138;-86
2022/09/23 09:18:52;;;;;;;3.40;2.65;;;;;;;13.72;78.25;101557.66;5034220;28;20117;-88
2022/09/23 09:21:26;;;;;;;2.75;2.30;;;;;;;13.85;78.37;101547.84;5035120;28;20036;-88
2022/09/23 09:23:54;;;;;;;3.13;2.13;;;;;;;13.98;77.94;101550.25;5034311;28;20052;-88
2022/09/23 09:26:31;;;;;;;2.00;1.80;;;;;;;14.13;77.68;101549.09;5035026;28;20021;-89
2022/09/23 09:29:09;;;;;;;3.42;2.22;;;;;;;14.26;76.64;101550.59;5034765;28;20021;-88
2022/09/23 09:31:41;;;;;;;3.55;2.45;;;;;;;14.39;76.75;101550.34;5035906;28;20060;-89
2022/09/23 09:34:10;;;;;;;3.28;2.30;;;;;;;14.51;76.06;101537.91;5034730;28;20033;-88
2022/09/23 09:36:48;;;;;;;4.45;2.33;;;;;;;14.64;76.37;101542.88;5034612;28;20104;-89
2022/09/23 09:39:15;;;;;;;2.45;1.90;;;;;;;14.78;75.96;101547.81;5047066;28;20021;-90
2022/09/23 09:41:50;;;;;;;2.95;1.70;;;;;;;14.90;75.72;101539.72;5054643;28;20461;-90
2022/09/23 09:44:41;;;;;;;3.35;2.40;;;;;;;15.04;74.06;101535.94;5054495;28;20035;-88
2022/09/23 09:47:18;;;;;;;2.20;1.98;;;;;;;15.12;75.13;101534.88;5053984;28;20035;-89
2022/09/23 09:49:59;;;;;;;3.75;2.50;;;;;;;15.21;71.97;101541.63;5053440;28;20032;-87
2022/09/23 09:52:27;;;;;;;3.40;2.17;;;;;;;15.28;73.26;101530.13;5034019;28;20033;-87
2022/09/23 09:54:59;;;;;;;3.20;2.53;;;;;;;15.37;69.64;101534.25;5050291;28;20021;-89
2022/09/23 09:57:29;;;;;;;4.18;3.08;;;;;;;15.45;71.89;101526.22;5054489;28;20495;-88
2022/09/23 09:59:54;;;;;;;5.20;3.05;;;;;;;15.57;70.37;101531.16;5053887;28;20425;-88
2022/09/23 10:02:28;;;;;;;3.43;2.60;;;;;;;15.70;70.94;101526.50;5054602;28;20055;-89
2022/09/23 10:04:57;;;;;;;3.63;2.40;;;;;;;15.80;68.47;101531.47;5053553;28;20489;-87
2022/09/23 10:07:29;;;;;;;3.25;2.38;;;;;;;15.84;70.94;101523.53;5050801;28;20028;-85
2022/09/23 10:09:55;;;;;;;2.78;2.10;;;;;;;15.92;70.11;101530.31;5053440;28;20028;-85
2022/09/23 10:12:23;;;;;;;2.67;2.05;;;;;;;15.99;70.76;101527.50;5052689;28;20025;-85
2022/09/23 10:14:54;;;;;;;2.78;2.22;;;;;;;16.08;69.31;101520.28;5052687;28;20083;-85
2022/09/23 10:17:31;;;;;;;3.33;2.50;;;;;;;16.13;69.00;101514.00;5053136;28;20433;-80
2022/09/23 10:19:59;;;;;;;2.45;1.88;;;;;;;16.19;69.63;101521.72;5052169;28;20029;-88
2022/09/23 10:22:30;;;;;;;1.95;1.80;;;;;;;16.29;70.17;101519.69;5053635;28;20048;-89
2022/09/23 10:25:02;;;;;;;1.70;1.60;;;;;;;16.37;70.13;101514.22;5053699;28;20056;-90
2022/09/23 10:27:30;;;;;;;1.40;1.30;;;;;;;16.45;70.05;101514.84;5054045;28;20469;-89
2022/09/23 10:30:20;;;;;;;2.80;1.92;;;;;;;16.51;64.19;101512.06;5043238;28;20025;-90
2022/09/23 10:32:46;;;;;;;2.72;1.98;;;;;;;16.61;68.68;101511.78;5034202;28;20105;-90
2022/09/23 10:35:17;;;;;;;1.93;1.83;;;;;;;16.69;68.85;101515.03;5033436;28;20116;-90
2022/09/23 10:37:51;;;;;;;3.30;2.00;;;;;;;16.74;64.82;101513.13;5035193;28;20026;-89
2022/09/23 10:46:37;;;;;;;2.03;1.83;;;;;;;16.82;68.08;101513.75;5034884;28;20398;-89
2022/09/23 10:49:20;;;;;;;2.60;1.90;;;;;;;16.87;67.52;101520.63;5048561;28;20029;-91
2022/09/23 10:52:09;;;;;;;1.90;1.70;;;;;;;16.92;66.79;101514.34;5063208;28;20412;-90
2022/09/23 10:54:50;;;;;;;1.63;1.52;;;;;;;16.95;67.60;101513.41;5053230;28;20071;-89
2022/09/23 10:57:43;;;;;;;1.60;1.50;;;;;;;17.00;66.86;101511.47;5053651;28;20039;-89
2022/09/23 11:00:22;;;;;;;2.63;1.75;;;;;;;17.02;65.77;101509.69;5053850;28;20075;-90
2022/09/23 11:03:16;;;;;;;2.30;2.00;;;;;;;17.01;64.92;101505.34;5052663;28;20104;-90
2022/09/23 11:06:12;;;;;;;1.67;1.58;;;;;;;17.07;66.76;101507.78;5053327;28;20040;-90
2022/09/23 11:08:55;;;;;;;2.75;1.80;;;;;;;17.10;62.13;101506.81;5053500;28;20032;-90
2022/09/23 11:11:38;;;;;;;4.38;1.90;;;;;;;17.12;63.93;101511.09;5052802;28;20029;-90
2022/09/23 11:14:37;;;;;;;1.67;1.58;;;;;;;17.18;66.02;101504.78;5053138;28;20114;-89
2022/09/23 11:17:15;;;;;;;1.67;1.58;;;;;;;17.27;66.56;101508.88;5052290;28;20738;-89
2022/09/23 11:19:55;;;;;;;2.10;1.90;;;;;;;17.33;64.07;101503.47;5054353;28;20029;-89
2022/09/23 11:22:45;;;;;;;2.97;2.10;;;;;;;17.33;63.12;101495.59;5056476;28;20060;-89
2022/09/23 11:25:29;;;;;;;2.00;1.67;;;;;;;17.42;65.35;101497.03;5063486;28;20072;-89
2022/09/23 11:28:16;;;;;;;2.13;1.80;;;;;;;17.49;65.99;101498.56;5052045;28;20168;-88
2022/09/23 11:30:55;;;;;;;2.10;1.63;;;;;;;17.60;65.65;101500.78;5035243;28;20108;-87
2022/09/23 11:33:51;;;;;;;2.65;1.75;;;;;;;17.66;64.99;101491.84;5051229;28;20025;-88
2022/09/23 11:36:51;;;;;;;1.73;1.60;;;;;;;17.69;65.56;101489.97;5052795;28;20087;-89
2022/09/23 11:39:23;;;;;;;2.08;1.60;;;;;;;17.74;64.13;101489.81;5052231;28;20040;-88
2022/09/23 11:41:53;;;;;;;1.90;1.80;;;;;;;17.78;65.55;101485.34;5054100;28;20108;-89
2022/09/23 11:44:25;;;;;;;2.17;1.58;;;;;;;17.79;63.46;101481.78;5056668;28;20029;-90
2022/09/23 11:47:20;;;;;;;2.40;1.88;;;;;;;17.77;61.62;101483.63;5056230;28;20029;-88
2022/09/23 11:49:56;;;;;;;1.83;1.73;;;;;;;17.74;63.25;101474.94;5056367;28;20028;-86
2022/09/23 11:52:34;;;;;;;1.90;1.60;;;;;;;17.77;64.09;101470.50;5039614;28;20108;-89
2022/09/23 11:55:16;;;;;;;1.75;1.65;;;;;;;17.82;64.39;101466.78;5037000;28;20047;-86
2022/09/23 11:57:47;;;;;;;1.60;1.50;;;;;;;17.90;64.55;101466.50;5056279;28;20032;-87
2022/09/23 12:00:37;;;;;;;1.52;1.40;;;;;;;17.94;63.44;101467.25;5055114;28;20025;-83
2022/09/23 12:03:22;;;;;;;2.13;1.60;;;;;;;17.98;63.87;101459.25;5055502;28;20025;-84
2022/09/23 12:05:57;;;;;;;2.13;1.30;;;;;;;18.03;64.62;101459.91;5055799;28;20029;-83
2022/09/23 12:08:33;;;;;;;1.40;1.30;;;;;;;18.10;62.52;101464.97;5055652;28;20411;-83
2022/09/23 12:11:24;;;;;;;3.03;1.70;;;;;;;18.11;62.45;101461.41;5056357;28;20021;-91
2022/09/23 12:14:20;;;;;;;3.05;2.00;;;;;;;18.12;61.66;101458.72;5055483;28;20044;-91
2022/09/23 12:16:54;;;;;;;2.20;2.00;;;;;;;18.13;62.01;101462.19;5056713;28;20032;-88
2022/09/23 12:19:46;;;;;;;3.40;2.00;;;;;;;18.10;61.54;101463.16;5053788;28;20044;-86
2022/09/23 12:22:27;;;;;;;4.28;2.38;;;;;;;18.04;62.19;101459.00;5056991;28;20035;-90
2022/09/23 12:25:32;;;;;;;3.03;2.10;;;;;;;18.00;59.04;101462.69;5055155;28;20037;-84
2022/09/23 12:28:02;;;;;;;2.67;2.10;;;;;;;17.99;61.64;101460.97;5054870;28;20044;-88
2022/09/23 12:30:31;;;;;;;3.03;2.20;;;;;;;17.98;62.28;101456.63;5055760;28;20021;-83
2022/09/23 12:33:20;;;;;;;2.40;1.90;;;;;;;17.98;61.92;101451.38;5054709;28;20489;-84
2022/09/23 12:35:46;;;;;;;1.85;1.65;;;;;;;17.99;62.27;101445.19;5054458;28;20037;-83
2022/09/23 12:38:51;;;;;;;1.40;1.30;;;;;;;18.05;62.80;101449.38;5054741;28;20083;-82
2022/09/23 12:41:32;;;;;;;1.50;1.40;;;;;;;18.10;62.94;101446.56;5054360;28;20546;-82
2022/09/23 12:44:12;;;;;;;1.98;1.35;;;;;;;18.14;63.18;101453.41;5053059;28;20104;-83
2022/09/23 12:46:39;;;;;;;2.08;1.75;;;;;;;18.14;62.50;101450.78;5055338;28;20104;-87
2022/09/23 12:49:06;;;;;;;;;;;;;;;18.10;61.52;101457.91;5054640;28;20172;-86
2022/09/23 12:51:33;;;;;;;2.72;1.80;;;;;;;18.09;61.63;101447.47;5055611;28;19936;-87
2022/09/23 12:54:20;;;;;;;2.05;1.67;;;;;;;18.10;62.54;101439.53;5053973;28;20021;-85
2022/09/23 12:56:54;;;;;;;;;;;;;;;18.11;60.54;101438.63;5055239;28;20040;-89
2022/09/23 12:59:31;;;;;;;1.60;1.50;;;;;;;18.14;63.14;101438.50;5055622;28;19913;-89